X  Sluiten METAR luchtvaart weer gegevens      EHVK Volkel Air Base
Temperatuur
15°C Temperatuur
14°C Dauwpunt
94% Vochtigheid



Wind
3 KM/U
2 MPH
1 M/S
2 KTS



Kalm
Noord
Huidig weer

Geheel bewolkt Geheel bewolkt
Luchtdruk 1013.92 (hPa) - 29.94 (inHg)
Zicht 6.2 (mijl) - 10 (km)
Vliegveld
Vliegveld code EHVK

Locatie : Volkel Air Base
Afstand: 28 (km)

Metar:
EHVK 142225Z AUTO VRB02KT 9999 OVC052 15/14 Q1014 BLU

Tijd: 15-07-2020 00:25 CEST